createdAt,value
2017-04-19T00:00:35.230Z,981.00
2017-04-19T00:01:35.827Z,981.01
2017-04-19T00:02:36.417Z,980.96
2017-04-19T00:03:37.010Z,981.00
2017-04-19T00:04:37.603Z,981.02
2017-04-19T00:05:38.197Z,981.00
2017-04-19T00:06:38.795Z,981.01
2017-04-19T00:07:39.384Z,980.99
2017-04-19T00:08:39.984Z,980.98
2017-04-19T00:09:40.574Z,981.01
2017-04-19T00:10:41.167Z,981.02
2017-04-19T00:11:41.765Z,981.02
2017-04-19T00:12:42.357Z,981.00
2017-04-19T00:13:42.952Z,981.00
2017-04-19T00:14:43.565Z,980.98
2017-04-19T00:15:44.174Z,980.99
2017-04-19T00:16:44.765Z,980.97
2017-04-19T00:17:45.359Z,980.93
2017-04-19T00:18:45.967Z,980.93
2017-04-19T00:19:46.561Z,980.94
2017-04-19T00:20:47.154Z,980.92
2017-04-19T00:21:47.747Z,980.97
2017-04-19T00:22:48.347Z,980.92
2017-04-19T00:23:48.945Z,980.89
2017-04-19T00:24:49.532Z,980.88
2017-04-19T00:25:50.125Z,980.84
2017-04-19T00:26:50.718Z,980.81
2017-04-19T00:27:51.329Z,980.86
2017-04-19T00:28:51.926Z,980.85
2017-04-19T00:29:52.520Z,980.84
2017-04-19T00:30:53.129Z,980.85
2017-04-19T00:31:53.738Z,980.82
2017-04-19T00:32:54.331Z,980.82
2017-04-19T00:33:54.931Z,980.82
2017-04-19T00:34:55.521Z,980.81
2017-04-19T00:35:56.118Z,980.83
2017-04-19T00:36:56.710Z,980.78
2017-04-19T00:37:57.304Z,980.79
2017-04-19T00:38:57.904Z,980.78
2017-04-19T00:39:58.493Z,980.76
2017-04-19T00:40:59.086Z,980.76
2017-04-19T00:41:59.685Z,980.75
2017-04-19T00:43:00.279Z,980.77
2017-04-19T00:44:00.871Z,980.70
2017-04-19T00:45:01.470Z,980.68
2017-04-19T00:46:02.067Z,980.69
2017-04-19T00:47:02.681Z,980.71
2017-04-19T00:48:03.270Z,980.72
2017-04-19T00:49:03.866Z,980.76
2017-04-19T00:50:04.459Z,980.77
2017-04-19T00:51:05.056Z,980.76
2017-04-19T00:52:05.667Z,980.75
2017-04-19T00:53:06.258Z,980.70
2017-04-19T00:54:06.853Z,980.68
2017-04-19T00:55:07.445Z,980.68
2017-04-19T00:56:08.038Z,980.69
2017-04-19T00:57:08.632Z,980.67
2017-04-19T00:58:09.224Z,980.74
2017-04-19T00:59:09.832Z,980.66
2017-04-19T01:00:10.424Z,980.71
2017-04-19T01:01:11.021Z,980.74
2017-04-19T01:02:11.619Z,980.71
2017-04-19T01:03:12.215Z,980.71
2017-04-19T01:04:12.805Z,980.69
2017-04-19T01:05:13.401Z,980.71
2017-04-19T01:06:13.991Z,980.71
2017-04-19T01:07:14.603Z,980.70
2017-04-19T01:08:15.197Z,980.71
2017-04-19T01:09:15.791Z,980.73
2017-04-19T01:10:16.379Z,980.76
2017-04-19T01:11:16.987Z,980.76
2017-04-19T01:12:17.578Z,980.75
2017-04-19T01:13:18.173Z,980.72
2017-04-19T01:14:18.766Z,980.75
2017-04-19T01:15:19.358Z,980.72
2017-04-19T01:16:19.966Z,980.71
2017-04-19T01:17:20.559Z,980.67
2017-04-19T01:18:21.152Z,980.73
2017-04-19T01:19:21.745Z,980.71
2017-04-19T01:20:22.339Z,980.72
2017-04-19T01:21:22.946Z,980.70
2017-04-19T01:22:23.556Z,980.71
2017-04-19T01:23:24.148Z,980.71
2017-04-19T01:24:24.757Z,980.70
2017-04-19T01:25:25.350Z,980.70
2017-04-19T01:26:25.944Z,980.75
2017-04-19T01:27:26.536Z,980.70
2017-04-19T01:28:27.133Z,980.73
2017-04-19T01:29:27.724Z,980.69
2017-04-19T01:30:28.319Z,980.72
2017-04-19T01:31:28.921Z,980.67
2017-04-19T01:32:29.506Z,980.63
2017-04-19T01:33:30.102Z,980.66
2017-04-19T01:34:30.693Z,980.65
2017-04-19T01:35:31.285Z,980.67
2017-04-19T01:36:31.880Z,980.62
2017-04-19T01:37:32.473Z,980.66
2017-04-19T01:38:33.064Z,980.64
2017-04-19T01:39:33.662Z,980.66
2017-04-19T01:40:34.258Z,980.68
2017-04-19T01:41:34.846Z,980.67
2017-04-19T01:42:35.447Z,980.68
2017-04-19T01:43:36.037Z,980.74
2017-04-19T01:44:36.630Z,980.75
2017-04-19T01:45:37.228Z,980.78
2017-04-19T01:46:37.820Z,980.81
2017-04-19T01:47:38.411Z,980.80
2017-04-19T01:48:39.004Z,980.80
2017-04-19T01:49:39.600Z,980.77
2017-04-19T01:50:40.197Z,980.75
2017-04-19T01:51:40.787Z,980.68
2017-04-19T01:52:41.388Z,980.72
2017-04-19T01:53:41.984Z,980.72
2017-04-19T01:54:42.574Z,980.72
2017-04-19T01:55:43.166Z,980.71
2017-04-19T01:56:43.760Z,980.77
2017-04-19T01:57:44.358Z,980.79
2017-04-19T01:58:44.948Z,980.82
2017-04-19T01:59:45.542Z,980.80
2017-04-19T02:00:46.140Z,980.79
2017-04-19T02:01:46.736Z,980.75
2017-04-19T02:02:47.325Z,980.77
2017-04-19T02:03:47.920Z,980.79
2017-04-19T02:04:48.517Z,980.78
2017-04-19T02:05:49.107Z,980.80
2017-04-19T02:06:49.699Z,980.79
2017-04-19T02:07:50.294Z,980.84
2017-04-19T02:08:50.887Z,980.80
2017-04-19T02:09:51.487Z,980.80
2017-04-19T02:10:52.081Z,980.78
2017-04-19T02:11:52.676Z,980.77
2017-04-19T02:12:53.266Z,980.74
2017-04-19T02:13:53.865Z,980.77
2017-04-19T02:14:54.454Z,980.78
2017-04-19T02:15:55.047Z,980.78
2017-04-19T02:16:55.643Z,980.79
2017-04-19T02:17:56.249Z,980.75
2017-04-19T02:18:56.842Z,980.75
2017-04-19T02:19:57.434Z,980.72
2017-04-19T02:20:58.028Z,980.74
2017-04-19T02:21:58.619Z,980.71
2017-04-19T02:22:59.218Z,980.71
2017-04-19T02:23:59.807Z,980.73
2017-04-19T02:25:00.406Z,980.74
2017-04-19T02:26:00.995Z,980.74
2017-04-19T02:27:01.593Z,980.76
2017-04-19T02:28:02.183Z,980.74
2017-04-19T02:29:02.780Z,980.79
2017-04-19T02:30:03.368Z,980.76
2017-04-19T02:31:03.962Z,980.75
2017-04-19T02:32:04.553Z,980.80
2017-04-19T02:33:05.146Z,980.82
2017-04-19T02:34:05.737Z,980.76
2017-04-19T02:35:06.330Z,980.82
2017-04-19T02:36:06.922Z,980.80
2017-04-19T02:37:07.517Z,980.84
2017-04-19T02:38:08.108Z,980.87
2017-04-19T02:39:08.701Z,980.87
2017-04-19T02:40:09.293Z,980.88
2017-04-19T02:41:09.888Z,980.87
2017-04-19T02:42:10.480Z,980.92
2017-04-19T02:43:11.088Z,980.89
2017-04-19T02:44:11.685Z,980.90
2017-04-19T02:45:12.277Z,980.91
2017-04-19T02:46:12.868Z,980.88
2017-04-19T02:47:13.476Z,980.92
2017-04-19T02:48:14.068Z,980.90
2017-04-19T02:49:14.667Z,980.91
2017-04-19T02:50:15.257Z,980.90
2017-04-19T02:51:15.866Z,980.89
2017-04-19T02:52:16.458Z,980.92
2017-04-19T02:53:17.051Z,980.90
2017-04-19T02:54:17.643Z,980.94
2017-04-19T02:55:18.242Z,980.92
2017-04-19T02:56:18.837Z,980.90
2017-04-19T02:57:19.428Z,980.93
2017-04-19T02:58:20.020Z,980.92
2017-04-19T02:59:20.612Z,980.95
2017-04-19T03:00:21.206Z,980.96
2017-04-19T03:01:21.799Z,980.96
2017-04-19T03:02:22.390Z,980.96
2017-04-19T03:03:22.984Z,980.93
2017-04-19T03:04:23.576Z,980.98
2017-04-19T03:05:24.169Z,980.95
2017-04-19T03:06:24.768Z,980.99
2017-04-19T03:07:25.364Z,980.98
2017-04-19T03:08:25.953Z,980.95
2017-04-19T03:09:26.544Z,981.00
2017-04-19T03:10:27.149Z,980.97
2017-04-19T03:11:27.735Z,980.99
2017-04-19T03:12:28.326Z,980.97
2017-04-19T03:13:28.933Z,980.98
2017-04-19T03:14:29.533Z,981.00
2017-04-19T03:15:30.129Z,981.00
2017-04-19T03:16:30.737Z,980.97
2017-04-19T03:17:31.330Z,980.95
2017-04-19T03:18:31.927Z,980.95
2017-04-19T03:19:32.524Z,980.95
2017-04-19T03:20:33.118Z,980.97
2017-04-19T03:21:33.715Z,980.93
2017-04-19T03:22:34.305Z,980.98
2017-04-19T03:23:34.899Z,980.95
2017-04-19T03:24:35.495Z,980.90
2017-04-19T03:25:36.085Z,980.90
2017-04-19T03:26:36.684Z,980.87
2017-04-19T03:27:37.273Z,980.88
2017-04-19T03:28:37.864Z,980.88
2017-04-19T03:29:38.458Z,980.88
2017-04-19T03:30:39.072Z,980.89
2017-04-19T03:31:39.662Z,980.88
2017-04-19T03:32:40.255Z,980.90
2017-04-19T03:33:40.847Z,980.90
2017-04-19T03:34:41.454Z,980.88
2017-04-19T03:35:42.047Z,980.89
2017-04-19T03:36:42.640Z,980.87
2017-04-19T03:37:43.248Z,980.87
2017-04-19T03:38:43.842Z,980.84
2017-04-19T03:39:44.435Z,980.86
2017-04-19T03:40:45.027Z,980.89
2017-04-19T03:41:45.620Z,980.90
2017-04-19T03:42:46.213Z,980.89
2017-04-19T03:43:46.806Z,980.88
2017-04-19T03:44:47.397Z,980.90
2017-04-19T03:45:47.992Z,980.88
2017-04-19T03:46:48.584Z,980.89
2017-04-19T03:47:49.175Z,980.89
2017-04-19T03:48:49.783Z,980.88
2017-04-19T03:49:50.376Z,980.90
2017-04-19T03:50:50.974Z,980.90
2017-04-19T03:51:51.563Z,980.87
2017-04-19T03:52:52.156Z,980.90
2017-04-19T03:53:52.759Z,980.85
2017-04-19T03:54:53.343Z,980.93
2017-04-19T03:55:53.942Z,980.88
2017-04-19T03:56:54.549Z,980.90
2017-04-19T03:57:55.144Z,980.91
2017-04-19T03:58:55.736Z,980.88
2017-04-19T03:59:56.327Z,980.90
2017-04-19T04:00:56.921Z,980.92
2017-04-19T04:01:57.513Z,980.91
2017-04-19T04:02:58.106Z,980.97
2017-04-19T04:03:58.698Z,980.99
2017-04-19T04:04:59.291Z,980.98
2017-04-19T04:05:59.889Z,981.01
2017-04-19T04:07:00.484Z,981.01
2017-04-19T04:08:01.074Z,981.03
2017-04-19T04:09:01.666Z,981.04
2017-04-19T04:10:02.259Z,981.06
2017-04-19T04:11:02.852Z,981.04
2017-04-19T04:12:03.449Z,981.03
2017-04-19T04:13:04.047Z,981.08
2017-04-19T04:14:04.654Z,981.08
2017-04-19T04:15:05.253Z,981.06
2017-04-19T04:16:05.841Z,981.03
2017-04-19T04:17:06.434Z,981.07
2017-04-19T04:18:07.030Z,981.04
2017-04-19T04:19:07.623Z,981.04
2017-04-19T04:20:08.221Z,981.02
2017-04-19T04:21:08.836Z,981.06
2017-04-19T04:22:09.446Z,981.06
2017-04-19T04:23:10.039Z,981.06
2017-04-19T04:24:10.632Z,981.08
2017-04-19T04:25:11.226Z,981.08
2017-04-19T04:26:11.819Z,981.09
2017-04-19T04:27:12.412Z,981.11
2017-04-19T04:28:13.008Z,981.10
2017-04-19T04:29:13.601Z,981.13
2017-04-19T04:30:14.195Z,981.09
2017-04-19T04:31:14.804Z,981.09
2017-04-19T04:32:15.413Z,981.09
2017-04-19T04:33:16.006Z,981.16
2017-04-19T04:34:16.606Z,981.13
2017-04-19T04:35:17.197Z,981.09
2017-04-19T04:36:17.790Z,981.09
2017-04-19T04:37:18.384Z,981.10
2017-04-19T04:38:18.977Z,981.12
2017-04-19T04:39:19.571Z,981.11
2017-04-19T04:40:20.172Z,981.14
2017-04-19T04:41:20.764Z,981.14
2017-04-19T04:42:21.358Z,981.20
2017-04-19T04:43:21.953Z,981.21
2017-04-19T04:44:22.548Z,981.18
2017-04-19T04:45:23.145Z,981.23
2017-04-19T04:46:23.744Z,981.25
2017-04-19T04:47:24.336Z,981.22
2017-04-19T04:48:24.945Z,981.29
2017-04-19T04:49:25.540Z,981.28
2017-04-19T04:50:26.135Z,981.29
2017-04-19T04:51:26.730Z,981.31
2017-04-19T04:52:27.324Z,981.29
2017-04-19T04:53:27.922Z,981.35
2017-04-19T04:54:28.516Z,981.34
2017-04-19T04:55:29.110Z,981.31
2017-04-19T04:56:29.704Z,981.36
2017-04-19T04:57:30.299Z,981.33
2017-04-19T04:58:30.895Z,981.37
2017-04-19T04:59:31.489Z,981.37
2017-04-19T05:00:32.083Z,981.37
2017-04-19T05:01:32.679Z,981.36
2017-04-19T05:02:33.274Z,981.38
2017-04-19T05:03:33.874Z,981.42
2017-04-19T05:04:34.490Z,981.38
2017-04-19T05:05:35.100Z,981.41
2017-04-19T05:06:35.700Z,981.40
2017-04-19T05:07:36.293Z,981.42
2017-04-19T05:08:36.894Z,981.41
2017-04-19T05:09:37.568Z,981.45
2017-04-19T05:10:38.160Z,981.46
2017-04-19T05:11:38.753Z,981.48
2017-04-19T05:12:39.350Z,981.50
2017-04-19T05:13:39.959Z,981.48
2017-04-19T05:14:40.556Z,981.48
2017-04-19T05:15:41.168Z,981.49
2017-04-19T05:16:41.767Z,981.52
2017-04-19T05:17:42.364Z,981.51
2017-04-19T05:18:42.956Z,981.53
2017-04-19T05:19:43.553Z,981.55
2017-04-19T05:20:44.153Z,981.54
2017-04-19T05:21:44.746Z,981.58
2017-04-19T05:22:45.363Z,981.58
2017-04-19T05:23:45.955Z,981.56
2017-04-19T05:24:46.556Z,981.59
2017-04-19T05:25:47.150Z,981.57
2017-04-19T05:26:47.761Z,981.58
2017-04-19T05:27:48.356Z,981.58
2017-04-19T05:28:48.951Z,981.60
2017-04-19T05:29:49.554Z,981.62
2017-04-19T05:30:50.146Z,981.61
2017-04-19T05:31:50.944Z,981.58
2017-04-19T05:32:51.555Z,981.62
2017-04-19T05:33:52.149Z,981.60
2017-04-19T05:34:52.746Z,981.62
2017-04-19T05:35:53.343Z,981.64
2017-04-19T05:36:53.959Z,981.62
2017-04-19T05:37:54.554Z,981.61
2017-04-19T05:38:55.149Z,981.60
2017-04-19T05:39:55.751Z,981.62
2017-04-19T05:40:56.351Z,981.62
2017-04-19T05:41:56.950Z,981.68
2017-04-19T05:42:57.563Z,981.64
2017-04-19T05:43:58.164Z,981.61
2017-04-19T05:44:58.862Z,981.61
2017-04-19T05:45:59.458Z,981.62
2017-04-19T05:47:00.127Z,981.61
2017-04-19T05:48:00.724Z,981.67
2017-04-19T05:49:01.335Z,981.64
2017-04-19T05:50:01.960Z,981.67
2017-04-19T05:51:02.624Z,981.67
2017-04-19T05:52:03.221Z,981.61
2017-04-19T05:53:03.873Z,981.63
2017-04-19T05:54:04.473Z,981.63
2017-04-19T05:55:05.149Z,981.69
2017-04-19T05:56:05.746Z,981.64
2017-04-19T05:57:06.344Z,981.67
2017-04-19T05:58:06.940Z,981.68
2017-04-19T05:59:07.571Z,981.69
2017-04-19T06:00:08.171Z,981.69
2017-04-19T06:01:08.771Z,981.71
2017-04-19T06:02:09.383Z,981.73
2017-04-19T06:03:09.995Z,981.74
2017-04-19T06:04:10.682Z,981.72
2017-04-19T06:05:11.284Z,981.75
2017-04-19T06:06:11.916Z,981.71
2017-04-19T06:07:12.548Z,981.72
2017-04-19T06:08:13.173Z,981.72
2017-04-19T06:09:13.773Z,981.74
2017-04-19T06:10:14.370Z,981.75
2017-04-19T06:11:14.965Z,981.72
2017-04-19T06:12:15.736Z,981.78
2017-04-19T06:13:16.332Z,981.75
2017-04-19T06:14:16.929Z,981.81
2017-04-19T06:15:17.541Z,981.80
2017-04-19T06:16:18.140Z,981.79
2017-04-19T06:17:18.758Z,981.83
2017-04-19T06:18:19.426Z,981.85
2017-04-19T06:19:20.024Z,981.80
2017-04-19T06:20:20.626Z,981.79
2017-04-19T06:21:21.228Z,981.79
2017-04-19T06:22:21.904Z,981.83
2017-04-19T06:23:22.561Z,981.84
2017-04-19T06:24:23.177Z,981.86
2017-04-19T06:25:23.778Z,981.83
2017-04-19T06:26:24.375Z,981.84
2017-04-19T06:27:24.983Z,981.85
2017-04-19T06:28:25.573Z,981.84
2017-04-19T06:29:26.177Z,981.85
2017-04-19T06:30:26.791Z,981.85
2017-04-19T06:31:27.416Z,981.85
2017-04-19T06:32:28.018Z,981.83
2017-04-19T06:33:28.614Z,981.90
2017-04-19T06:34:29.227Z,981.93
2017-04-19T06:35:29.833Z,981.94
2017-04-19T06:36:30.428Z,981.90
2017-04-19T06:37:31.028Z,981.96
2017-04-19T06:38:31.632Z,981.96
2017-04-19T06:39:32.228Z,981.91
2017-04-19T06:40:32.829Z,981.97
2017-04-19T06:41:33.428Z,982.07
2017-04-19T06:42:34.034Z,982.07
2017-04-19T06:43:34.638Z,981.99
2017-04-19T06:44:35.242Z,981.94
2017-04-19T06:45:35.838Z,981.96
2017-04-19T06:46:36.437Z,982.09
2017-04-19T06:47:37.035Z,981.94
2017-04-19T06:48:37.640Z,981.98
2017-04-19T06:49:38.248Z,981.91
2017-04-19T06:50:38.844Z,982.23
2017-04-19T06:51:39.669Z,981.92
2017-04-19T06:52:40.323Z,981.91
2017-04-19T06:53:40.922Z,982.10
2017-04-19T06:54:41.524Z,981.90
2017-04-19T06:55:42.132Z,981.85
2017-04-19T06:56:42.749Z,981.99
2017-04-19T06:57:43.520Z,984.12
2017-04-19T06:58:44.104Z,984.83
2017-04-19T06:59:44.707Z,984.74
2017-04-19T07:00:45.308Z,982.60
2017-04-19T07:01:45.966Z,984.66
2017-04-19T07:02:46.571Z,982.28
2017-04-19T07:03:47.178Z,984.34
2017-04-19T07:04:47.784Z,984.47
2017-04-19T07:05:48.389Z,984.45
2017-04-19T07:06:48.996Z,984.71
2017-04-19T07:07:49.604Z,984.13
2017-04-19T07:08:50.219Z,982.77
2017-04-19T07:09:50.826Z,982.20
2017-04-19T07:10:51.450Z,982.02
2017-04-19T07:11:52.062Z,982.09
2017-04-19T07:12:52.674Z,981.99
2017-04-19T07:13:53.305Z,982.04
2017-04-19T07:14:53.914Z,982.01
2017-04-19T07:15:54.528Z,982.07
2017-04-19T07:16:55.144Z,982.06
2017-04-19T07:17:55.760Z,982.02
2017-04-19T07:18:56.369Z,981.98
2017-04-19T07:19:56.986Z,981.89
2017-04-19T07:20:57.612Z,981.81
2017-04-19T07:21:58.232Z,981.99
2017-04-19T07:22:58.863Z,981.92
2017-04-19T07:23:59.477Z,981.93
2017-04-19T07:25:00.091Z,981.95
2017-04-19T07:26:00.771Z,981.98
2017-04-19T07:27:01.386Z,981.90
2017-04-19T07:28:02.056Z,981.94
2017-04-19T07:29:02.672Z,981.98
2017-04-19T07:30:03.285Z,982.08
2017-04-19T07:31:03.905Z,981.69
2017-04-19T07:32:04.522Z,982.05
2017-04-19T07:33:05.159Z,981.94
2017-04-19T07:34:05.775Z,982.06
2017-04-19T07:35:06.397Z,981.79
2017-04-19T07:36:07.008Z,981.81
2017-04-19T07:37:07.629Z,982.07
2017-04-19T07:38:08.251Z,982.10
2017-04-19T07:39:08.864Z,981.90
2017-04-19T07:40:09.481Z,982.05
2017-04-19T07:41:10.113Z,982.06
2017-04-19T07:42:10.730Z,982.16
2017-04-19T07:43:11.342Z,981.86
2017-04-19T07:44:12.006Z,982.16
2017-04-19T07:45:12.620Z,981.96
2017-04-19T07:46:13.234Z,981.88
2017-04-19T07:47:13.849Z,981.90
2017-04-19T07:48:14.461Z,981.99
2017-04-19T07:49:15.074Z,981.99
2017-04-19T07:50:15.687Z,982.01
2017-04-19T07:51:16.299Z,982.32
2017-04-19T07:52:16.911Z,981.95
2017-04-19T07:53:17.522Z,981.92
2017-04-19T07:54:18.148Z,982.09
2017-04-19T07:55:18.760Z,981.96
2017-04-19T07:56:19.371Z,981.94
2017-04-19T07:57:19.982Z,982.07
2017-04-19T07:58:20.607Z,981.99
2017-04-19T07:59:21.218Z,981.98
2017-04-19T08:00:21.825Z,982.04
2017-04-19T08:01:22.435Z,982.16
2017-04-19T08:02:23.291Z,982.09
2017-04-19T08:03:23.908Z,982.29
2017-04-19T08:04:24.522Z,982.32
2017-04-19T08:05:25.121Z,982.06
2017-04-19T08:06:25.733Z,982.27
2017-04-19T08:07:26.355Z,982.30
2017-04-19T08:08:27.229Z,982.29
2017-04-19T08:09:27.843Z,982.30
2017-04-19T08:10:28.454Z,982.02
2017-04-19T08:11:29.061Z,982.40
2017-04-19T08:12:29.676Z,981.84
2017-04-19T08:13:30.289Z,982.01
2017-04-19T08:14:30.898Z,982.22
2017-04-19T08:15:31.510Z,982.10
2017-04-19T08:16:32.123Z,982.23
2017-04-19T08:17:32.756Z,982.20
2017-04-19T08:18:33.616Z,982.18
2017-04-19T08:19:34.235Z,982.15
2017-04-19T08:20:34.845Z,981.98
2017-04-19T08:21:35.709Z,981.96
2017-04-19T08:22:36.323Z,982.13
2017-04-19T08:23:36.938Z,981.72
2017-04-19T08:24:37.554Z,981.82
2017-04-19T08:25:38.173Z,981.90
2017-04-19T08:26:38.804Z,982.29
2017-04-19T08:27:39.675Z,982.08
2017-04-19T08:28:40.293Z,982.24
2017-04-19T08:29:40.906Z,982.23
2017-04-19T08:30:41.534Z,982.19
2017-04-19T08:31:42.164Z,981.85
2017-04-19T08:32:42.785Z,981.86
2017-04-19T08:33:43.405Z,981.81
2017-04-19T08:34:44.010Z,981.84
2017-04-19T08:35:44.624Z,981.92
2017-04-19T08:36:45.253Z,981.97
2017-04-19T08:37:45.866Z,981.98
2017-04-19T08:38:46.481Z,982.03
2017-04-19T08:39:47.094Z,982.02
2017-04-19T08:40:47.712Z,982.01
2017-04-19T08:41:48.320Z,982.02
2017-04-19T08:42:48.931Z,982.15
2017-04-19T08:43:49.545Z,982.04
2017-04-19T08:44:50.158Z,982.03
2017-04-19T08:45:50.766Z,982.07
2017-04-19T08:46:51.371Z,982.08
2017-04-19T08:47:51.994Z,982.11
2017-04-19T08:48:52.599Z,982.14
2017-04-19T08:49:53.212Z,982.11
2017-04-19T08:50:53.815Z,982.11
2017-04-19T08:51:54.424Z,981.96
2017-04-19T08:52:55.031Z,982.09
2017-04-19T08:53:55.637Z,982.07
2017-04-19T08:54:56.244Z,982.18
2017-04-19T08:55:56.850Z,982.22
2017-04-19T08:56:57.476Z,982.18
2017-04-19T08:57:58.342Z,982.27
2017-04-19T08:58:58.954Z,982.50
2017-04-19T08:59:59.556Z,982.38
2017-04-19T09:01:00.164Z,982.39
2017-04-19T09:02:00.770Z,982.44
2017-04-19T09:03:01.381Z,982.55
2017-04-19T09:04:02.002Z,982.61
2017-04-19T09:05:02.858Z,982.63
2017-04-19T09:06:03.468Z,982.69
2017-04-19T09:07:04.073Z,982.55
2017-04-19T09:08:04.730Z,982.56
2017-04-19T09:09:05.340Z,982.46
2017-04-19T09:10:05.951Z,982.50
2017-04-19T09:11:06.563Z,982.52
2017-04-19T09:12:07.167Z,982.59
2017-04-19T09:13:08.024Z,982.60
2017-04-19T09:14:08.632Z,982.68
2017-04-19T09:15:09.241Z,982.78
2017-04-19T09:16:09.850Z,982.68
2017-04-19T09:17:10.458Z,982.68
2017-04-19T09:18:11.090Z,982.80
2017-04-19T09:19:11.703Z,982.88
2017-04-19T09:20:12.334Z,982.86
2017-04-19T09:21:12.943Z,982.70
2017-04-19T09:22:13.557Z,982.71
2017-04-19T09:23:14.177Z,982.72
2017-04-19T09:24:14.842Z,982.47
2017-04-19T09:25:15.470Z,982.96
2017-04-19T09:26:16.086Z,982.87
2017-04-19T09:27:16.707Z,982.77
2017-04-19T09:28:17.326Z,982.86
2017-04-19T09:29:17.953Z,982.72
2017-04-19T09:30:18.587Z,982.64
2017-04-19T09:31:19.216Z,982.60
2017-04-19T09:32:19.832Z,982.48
2017-04-19T09:33:20.447Z,982.45
2017-04-19T11:38:33.879Z,983.00
2017-04-19T11:39:34.486Z,983.06
2017-04-19T11:40:35.086Z,983.09
2017-04-19T11:41:36.516Z,983.11
2017-04-19T11:42:37.119Z,983.04
2017-04-19T11:43:37.719Z,983.10
2017-04-19T11:44:38.321Z,983.09
2017-04-19T11:45:38.922Z,983.16
2017-04-19T11:46:39.523Z,983.48
2017-04-19T11:47:40.141Z,983.32
2017-04-19T11:48:40.740Z,983.34
2017-04-19T11:49:41.343Z,983.22
2017-04-19T11:50:41.943Z,983.39
2017-04-19T11:51:42.545Z,983.20
2017-04-19T11:52:43.151Z,983.24
2017-04-19T11:53:43.749Z,983.23
2017-04-19T11:54:44.350Z,983.22
2017-04-19T11:55:44.956Z,983.27
2017-04-19T11:56:45.555Z,983.30
2017-04-19T11:57:46.158Z,983.41
2017-04-19T11:58:47.007Z,983.49
2017-04-19T11:59:47.609Z,983.42
2017-04-19T12:00:48.210Z,983.23
2017-04-19T12:01:48.813Z,983.38
2017-04-19T12:02:49.413Z,983.34
2017-04-19T12:03:50.035Z,983.37
2017-04-19T12:04:50.632Z,983.47
2017-04-19T12:05:51.232Z,983.41
2017-04-19T12:06:51.840Z,983.43
2017-04-19T12:07:52.437Z,983.51
2017-04-19T12:08:53.296Z,983.57
2017-04-19T12:09:53.895Z,983.63
2017-04-19T12:10:54.495Z,983.65
2017-04-19T12:11:55.102Z,983.54
2017-04-19T12:12:55.700Z,983.68
2017-04-19T12:13:56.559Z,983.54
2017-04-19T12:14:57.156Z,983.47
2017-04-19T12:15:57.758Z,983.39
2017-04-19T12:16:58.357Z,983.51
2017-04-19T12:17:58.959Z,983.61
2017-04-19T12:18:59.568Z,983.51
2017-04-19T12:20:00.166Z,983.45
2017-04-19T12:21:00.766Z,983.52
2017-04-19T12:22:01.367Z,983.47
2017-04-19T12:23:01.969Z,983.44
2017-04-19T12:24:02.571Z,983.51
2017-04-19T12:25:03.171Z,983.53
2017-04-19T12:26:03.770Z,983.56
2017-04-19T12:27:04.371Z,983.50
2017-04-19T12:28:04.973Z,983.53
2017-04-19T12:29:05.582Z,983.60
2017-04-19T12:30:06.179Z,983.66
2017-04-19T12:31:06.780Z,983.61
2017-04-19T12:32:07.396Z,983.61
2017-04-19T12:33:08.002Z,983.62
2017-04-19T12:34:08.601Z,983.54
2017-04-19T12:35:09.201Z,983.78
2017-04-19T12:36:09.804Z,983.73
2017-04-19T12:37:10.403Z,983.81
2017-04-19T12:38:11.004Z,983.69
2017-04-19T12:39:11.611Z,983.81
2017-04-19T12:40:12.214Z,983.71
2017-04-19T12:41:12.812Z,983.65
2017-04-19T12:42:13.415Z,983.85
2017-04-19T12:43:14.020Z,983.70
2017-04-19T12:44:14.622Z,983.68
2017-04-19T12:45:15.221Z,983.69
2017-04-19T12:46:15.826Z,983.77
2017-04-19T12:47:16.446Z,983.70
2017-04-19T12:48:17.029Z,983.79
2017-04-19T12:49:17.636Z,983.85
2017-04-19T12:50:18.234Z,983.84
2017-04-19T12:51:18.836Z,983.81
2017-04-19T12:52:19.440Z,983.75
2017-04-19T12:53:20.038Z,983.77
2017-04-19T12:54:20.640Z,983.71
2017-04-19T12:55:21.246Z,983.64
2017-04-19T12:56:21.844Z,983.66
2017-04-19T12:57:22.453Z,983.76
2017-04-19T12:58:23.052Z,983.60
2017-04-19T12:59:23.653Z,983.59
2017-04-19T13:00:24.255Z,983.57
2017-04-19T13:01:24.855Z,983.60
2017-04-19T13:02:25.457Z,983.61
2017-04-19T13:03:26.060Z,983.70
2017-04-19T13:04:26.687Z,983.68
2017-04-19T13:05:27.283Z,983.72
2017-04-19T13:06:27.889Z,983.67
2017-04-19T13:07:28.506Z,983.64
2017-04-19T13:08:29.106Z,983.63
2017-04-19T13:09:29.712Z,983.74
2017-04-19T13:10:30.311Z,983.56
2017-04-19T13:11:30.917Z,983.70
2017-04-19T13:12:31.516Z,983.63
2017-04-19T13:13:32.137Z,983.66
2017-04-19T13:14:32.955Z,983.61
2017-04-19T13:15:33.556Z,983.64
2017-04-19T13:16:34.156Z,983.57
2017-04-19T13:17:34.757Z,983.82
2017-04-19T13:18:35.377Z,983.62
2017-04-19T13:19:35.974Z,983.78
2017-04-19T13:20:36.575Z,983.67
2017-04-19T13:21:37.177Z,983.75
2017-04-19T13:22:37.780Z,983.56
2017-04-19T13:23:38.379Z,983.68
2017-04-19T13:24:38.980Z,983.67
2017-04-19T13:25:39.597Z,983.70
2017-04-19T13:26:40.201Z,983.55
2017-04-19T13:27:40.798Z,983.65
2017-04-19T13:28:41.407Z,983.63
2017-04-19T13:29:42.008Z,983.57
2017-04-19T13:30:42.610Z,983.63
2017-04-19T13:31:43.217Z,983.68
2017-04-19T13:32:43.820Z,983.52
2017-04-19T13:33:44.418Z,983.54
2017-04-19T13:34:45.021Z,983.59
2017-04-19T13:35:45.632Z,983.57
2017-04-19T13:36:46.233Z,983.54
2017-04-19T13:37:46.836Z,983.60
2017-04-19T13:38:47.452Z,983.64
2017-04-19T13:39:48.067Z,983.64
2017-04-19T13:40:48.669Z,983.65
2017-04-19T13:41:49.270Z,983.63
2017-04-19T13:42:49.893Z,983.59
2017-04-19T13:43:50.553Z,983.61
2017-04-19T13:44:51.141Z,983.65
2017-04-19T13:45:51.757Z,983.61
2017-04-19T13:46:52.357Z,983.62
2017-04-19T13:47:52.957Z,983.59
2017-04-19T13:48:53.556Z,983.64
2017-04-19T13:49:54.157Z,983.66
2017-04-19T13:50:54.758Z,983.61
2017-04-19T13:51:55.377Z,983.58
2017-04-19T13:52:55.976Z,983.65
2017-04-19T13:53:56.581Z,983.67
2017-04-19T13:54:57.228Z,983.72
2017-04-19T13:55:57.828Z,983.63
2017-04-19T13:56:58.426Z,983.70
2017-04-19T13:57:59.047Z,983.54
2017-04-19T13:58:59.642Z,983.64
2017-04-19T14:00:00.244Z,983.62
2017-04-19T14:01:00.851Z,983.65
2017-04-19T14:02:01.464Z,983.67
2017-04-19T14:03:02.115Z,983.87
2017-04-19T14:04:02.718Z,983.75
2017-04-19T14:05:03.326Z,983.73
2017-04-19T14:06:03.918Z,983.87
2017-04-19T14:07:04.518Z,983.89
2017-04-19T14:08:05.170Z,984.09
2017-04-19T14:09:05.782Z,983.87
2017-04-19T14:10:06.380Z,983.98
2017-04-19T14:11:06.988Z,983.83
2017-04-19T14:12:07.603Z,983.85
2017-04-19T14:13:08.203Z,983.95
2017-04-19T14:14:08.803Z,983.95
2017-04-19T14:15:09.408Z,983.96
2017-04-19T14:16:10.003Z,983.92
2017-04-19T14:17:10.603Z,983.94
2017-04-19T14:18:11.207Z,983.87
2017-04-19T14:19:11.806Z,983.95
2017-04-19T14:20:12.405Z,984.03
2017-04-19T14:21:13.003Z,983.94
2017-04-19T14:22:13.603Z,983.96
2017-04-19T14:23:14.219Z,984.02
2017-04-19T14:24:14.838Z,984.00
2017-04-19T14:25:15.438Z,984.03
2017-04-19T14:26:16.032Z,984.04
2017-04-19T14:27:16.631Z,984.09
2017-04-19T14:28:17.231Z,984.01
2017-04-19T14:29:17.844Z,984.01
2017-04-19T14:30:18.445Z,984.07
2017-04-19T14:31:19.044Z,984.10
2017-04-19T14:32:19.644Z,984.07
2017-04-19T14:33:20.242Z,983.98
2017-04-19T14:34:20.841Z,984.04
2017-04-19T14:35:21.442Z,984.08
2017-04-19T14:36:22.039Z,984.04
2017-04-19T14:37:22.638Z,984.05
2017-04-19T14:38:23.241Z,984.04
2017-04-19T14:39:23.837Z,983.99
2017-04-19T14:40:24.437Z,984.02